FDX8 EIDW-CYYZ
Flight info
| Callsign | FDX8 |
|---|---|
| Flight time | N/A |
| Altitude | 35000 |
| Route | PELIG2J PELIG DCT DOGAL/M084F350 NATA ALLRY/N0481F350 DCT QUBIS DCT LETAK IMEBA9 |
| Aircraft | MD11/H-SDE1E2E3FGHIJ2J3J4J5M1RWXY/LB1D1 |
Departure
| Time | 2026-05-01 12:38 |
|---|---|
| Airport | Dublin Airport (EIDW) |
Arrival
| Time | N/A |
|---|---|
| Airport | Toronto Pearson International Airport (CYYZ) |
| Time | Latitude | Longitude | Altitude | Speed | Heading |
|---|---|---|---|---|---|
| 2026-05-01 12:05 | 53.42433 | -6.26328 | 223 ft | 0 kts | 185° |
| 2026-05-01 12:06 | 53.42433 | -6.26329 | 223 ft | 0 kts | 185° |
| 2026-05-01 12:25 | 53.42449 | -6.26326 | 222 ft | 4 kts | 185° |
| 2026-05-01 12:25 | 53.42496 | -6.26319 | 218 ft | 4 kts | 167° |
| 2026-05-01 12:25 | 53.42514 | -6.26331 | 219 ft | 4 kts | 119° |
| 2026-05-01 12:26 | 53.42522 | -6.26371 | 221 ft | 4 kts | 96° |
| 2026-05-01 12:26 | 53.42519 | -6.26319 | 219 ft | 4 kts | 95° |
| 2026-05-01 12:26 | 53.42517 | -6.26275 | 218 ft | 4 kts | 95° |
| 2026-05-01 12:27 | 53.42514 | -6.26231 | 218 ft | 4 kts | 95° |
| 2026-05-01 12:27 | 53.42509 | -6.26141 | 225 ft | 4 kts | 95° |
| 2026-05-01 12:28 | 53.42507 | -6.26095 | 218 ft | 0 kts | 95° |
| 2026-05-01 12:30 | 53.42506 | -6.26086 | 218 ft | 3 kts | 95° |
| 2026-05-01 12:30 | 53.42503 | -6.26028 | 221 ft | 7 kts | 95° |
| 2026-05-01 12:30 | 53.42500 | -6.25961 | 224 ft | 6 kts | 97° |
| 2026-05-01 12:31 | 53.42473 | -6.25857 | 221 ft | 12 kts | 120° |
| 2026-05-01 12:31 | 53.42479 | -6.25792 | 223 ft | 7 kts | 56° |
| 2026-05-01 12:31 | 53.42533 | -6.25698 | 223 ft | 15 kts | 45° |
| 2026-05-01 12:31 | 53.42624 | -6.25543 | 220 ft | 20 kts | 45° |
| 2026-05-01 12:32 | 53.42714 | -6.25389 | 219 ft | 17 kts | 45° |
| 2026-05-01 12:32 | 53.42862 | -6.25290 | 223 ft | 14 kts | 336° |
| 2026-05-01 12:32 | 53.42979 | -6.25377 | 222 ft | 23 kts | 336° |
| 2026-05-01 12:33 | 53.43149 | -6.25501 | 223 ft | 28 kts | 337° |
| 2026-05-01 12:33 | 53.43319 | -6.25622 | 223 ft | 25 kts | 336° |
| 2026-05-01 12:33 | 53.43404 | -6.25712 | 221 ft | 6 kts | 279° |
| 2026-05-01 12:33 | 53.43381 | -6.25801 | 224 ft | 13 kts | 245° |
| 2026-05-01 12:34 | 53.43357 | -6.25888 | 224 ft | 18 kts | 245° |
| 2026-05-01 12:34 | 53.43300 | -6.26100 | 225 ft | 15 kts | 246° |
| 2026-05-01 12:34 | 53.43321 | -6.26199 | 220 ft | 12 kts | 315° |
| 2026-05-01 12:34 | 53.43406 | -6.26323 | 223 ft | 20 kts | 320° |
| 2026-05-01 12:35 | 53.43459 | -6.26490 | 225 ft | 19 kts | 275° |
| 2026-05-01 12:35 | 53.43473 | -6.26750 | 221 ft | 26 kts | 275° |
| 2026-05-01 12:35 | 53.43489 | -6.27053 | 226 ft | 27 kts | 275° |
| 2026-05-01 12:35 | 53.43505 | -6.27352 | 224 ft | 29 kts | 275° |
| 2026-05-01 12:36 | 53.43523 | -6.27671 | 219 ft | 26 kts | 275° |
| 2026-05-01 12:36 | 53.43538 | -6.27953 | 218 ft | 23 kts | 275° |
| 2026-05-01 12:36 | 53.43557 | -6.28105 | 219 ft | 7 kts | 317° |
| 2026-05-01 12:36 | 53.43620 | -6.28103 | 218 ft | 13 kts | 4° |
| 2026-05-01 12:37 | 53.43702 | -6.28084 | 218 ft | 6 kts | 33° |
| 2026-05-01 12:37 | 53.43712 | -6.27992 | 223 ft | 10 kts | 92° |
| 2026-05-01 12:37 | 53.43699 | -6.27781 | 218 ft | 36 kts | 95° |
| 2026-05-01 12:37 | 53.43652 | -6.26930 | 224 ft | 111 kts | 95° |
| 2026-05-01 12:38 | 53.43563 | -6.25267 | 220 ft | 171 kts | 95° |
| 2026-05-01 12:38 | 53.43449 | -6.23177 | 604 ft | 183 kts | 97° |
| 2026-05-01 12:38 | 53.43314 | -6.21046 | 1385 ft | 183 kts | 99° |
| 2026-05-01 12:38 | 53.43264 | -6.18905 | 2040 ft | 190 kts | 94° |
| 2026-05-01 12:39 | 53.43404 | -6.16678 | 2504 ft | 201 kts | 79° |
| 2026-05-01 12:39 | 53.44065 | -6.14592 | 2908 ft | 209 kts | 46° |
| 2026-05-01 12:39 | 53.45320 | -6.13371 | 3335 ft | 213 kts | 11° |
| 2026-05-01 12:39 | 53.46850 | -6.13218 | 3591 ft | 225 kts | 357° |
| 2026-05-01 12:40 | 53.48466 | -6.13185 | 3792 ft | 245 kts | 1° |
| 2026-05-01 12:40 | 53.50244 | -6.12930 | 3927 ft | 267 kts | 6° |
| 2026-05-01 12:40 | 53.52127 | -6.12433 | 4239 ft | 277 kts | 10° |
| 2026-05-01 12:40 | 53.54016 | -6.11762 | 4754 ft | 281 kts | 12° |
| 2026-05-01 12:41 | 53.55946 | -6.11116 | 5513 ft | 285 kts | 10° |
| 2026-05-01 12:41 | 53.57917 | -6.10509 | 6178 ft | 291 kts | 10° |
| 2026-05-01 12:41 | 53.59949 | -6.10310 | 6755 ft | 295 kts | 348° |
| 2026-05-01 12:41 | 53.61856 | -6.11521 | 7339 ft | 295 kts | 322° |
| 2026-05-01 12:42 | 53.63272 | -6.13956 | 7917 ft | 291 kts | 295° |
| 2026-05-01 12:42 | 53.63907 | -6.17009 | 8491 ft | 284 kts | 269° |
| 2026-05-01 12:42 | 53.63692 | -6.20240 | 9076 ft | 275 kts | 243° |
| 2026-05-01 12:42 | 53.62682 | -6.22901 | 9633 ft | 270 kts | 222° |
| 2026-05-01 12:43 | 53.61362 | -6.25180 | 10149 ft | 276 kts | 226° |
| 2026-05-01 12:43 | 53.60243 | -6.27889 | 10483 ft | 293 kts | 233° |
| 2026-05-01 12:43 | 53.59156 | -6.30950 | 10629 ft | 316 kts | 235° |
| 2026-05-01 12:43 | 53.58003 | -6.34233 | 10745 ft | 337 kts | 235° |
| 2026-05-01 12:44 | 53.56782 | -6.37658 | 11270 ft | 343 kts | 234° |
| 2026-05-01 12:44 | 53.55533 | -6.41104 | 11921 ft | 346 kts | 234° |
| 2026-05-01 12:44 | 53.52961 | -6.48042 | 13187 ft | 352 kts | 233° |
| 2026-05-01 12:45 | 53.50318 | -6.55059 | 14334 ft | 359 kts | 233° |
| 2026-05-01 12:45 | 53.48970 | -6.58614 | 14863 ft | 361 kts | 233° |
| 2026-05-01 12:45 | 53.47613 | -6.62186 | 15373 ft | 364 kts | 233° |
| 2026-05-01 12:46 | 53.46243 | -6.65783 | 15875 ft | 367 kts | 233° |
| 2026-05-01 12:46 | 53.44861 | -6.69405 | 16369 ft | 370 kts | 232° |
| 2026-05-01 12:46 | 53.43471 | -6.73045 | 16908 ft | 372 kts | 232° |
| 2026-05-01 12:46 | 53.42070 | -6.76705 | 17390 ft | 374 kts | 232° |
| 2026-05-01 12:47 | 53.40659 | -6.80386 | 17899 ft | 376 kts | 232° |
| 2026-05-01 12:47 | 53.39239 | -6.84087 | 18379 ft | 378 kts | 232° |
| 2026-05-01 12:47 | 53.37811 | -6.87801 | 18777 ft | 381 kts | 232° |
| 2026-05-01 12:47 | 53.36373 | -6.91538 | 19168 ft | 383 kts | 232° |
| 2026-05-01 12:48 | 53.34923 | -6.95297 | 19541 ft | 385 kts | 232° |
| 2026-05-01 12:48 | 53.33464 | -6.99075 | 19934 ft | 387 kts | 232° |
| 2026-05-01 12:48 | 53.31998 | -7.02865 | 20298 ft | 390 kts | 232° |
| 2026-05-01 12:48 | 53.30518 | -7.06688 | 20668 ft | 392 kts | 232° |
| 2026-05-01 12:49 | 53.29033 | -7.10514 | 21046 ft | 394 kts | 232° |
| 2026-05-01 12:49 | 53.27537 | -7.14364 | 21427 ft | 396 kts | 232° |
| 2026-05-01 12:49 | 53.26032 | -7.18234 | 21814 ft | 398 kts | 232° |
| 2026-05-01 12:49 | 53.24518 | -7.22116 | 22258 ft | 399 kts | 231° |
| 2026-05-01 12:50 | 53.23066 | -7.26098 | 22609 ft | 405 kts | 236° |
| 2026-05-01 12:50 | 53.21902 | -7.30429 | 22994 ft | 414 kts | 245° |
| 2026-05-01 12:50 | 53.21209 | -7.35119 | 23365 ft | 425 kts | 256° |
| 2026-05-01 12:50 | 53.21070 | -7.40090 | 23711 ft | 437 kts | 267° |
| 2026-05-01 12:51 | 53.21473 | -7.45165 | 23996 ft | 446 kts | 275° |
| 2026-05-01 12:51 | 53.22168 | -7.50245 | 24323 ft | 451 kts | 278° |
| 2026-05-01 12:51 | 53.23752 | -7.60447 | 24993 ft | 456 kts | 278° |
| 2026-05-01 12:52 | 53.24521 | -7.65597 | 25330 ft | 458 kts | 277° |
| 2026-05-01 12:52 | 53.25988 | -7.76009 | 26006 ft | 463 kts | 276° |
| 2026-05-01 12:52 | 53.26702 | -7.81269 | 26338 ft | 466 kts | 276° |
| 2026-05-01 12:53 | 53.28122 | -7.91877 | 26984 ft | 471 kts | 276° |
| 2026-05-01 12:53 | 53.28835 | -7.97240 | 27297 ft | 473 kts | 276° |
| 2026-05-01 12:53 | 53.29548 | -8.02615 | 27617 ft | 475 kts | 276° |
| 2026-05-01 12:54 | 53.30263 | -8.08020 | 27929 ft | 478 kts | 276° |
| 2026-05-01 12:54 | 53.31699 | -8.18930 | 28561 ft | 483 kts | 276° |
| 2026-05-01 12:54 | 53.32409 | -8.24355 | 28896 ft | 485 kts | 275° |
| 2026-05-01 12:55 | 53.33854 | -8.35457 | 29392 ft | 491 kts | 275° |
| 2026-05-01 12:55 | 53.34578 | -8.41053 | 29675 ft | 494 kts | 275° |
| 2026-05-01 12:55 | 53.35305 | -8.46690 | 29933 ft | 496 kts | 275° |
| 2026-05-01 12:56 | 53.36031 | -8.52341 | 30176 ft | 498 kts | 275° |
| 2026-05-01 12:56 | 53.36757 | -8.58018 | 30422 ft | 499 kts | 275° |
| 2026-05-01 12:56 | 53.37484 | -8.63710 | 30723 ft | 499 kts | 275° |
| 2026-05-01 12:56 | 53.38205 | -8.69386 | 31026 ft | 498 kts | 275° |
| 2026-05-01 12:57 | 53.38922 | -8.75046 | 31318 ft | 497 kts | 275° |
| 2026-05-01 12:57 | 53.40309 | -8.86392 | 31930 ft | 496 kts | 274° |
| 2026-05-01 12:57 | 53.40987 | -8.92043 | 32220 ft | 495 kts | 275° |
| 2026-05-01 12:58 | 53.41671 | -8.97692 | 32451 ft | 495 kts | 275° |
| 2026-05-01 12:58 | 53.42360 | -9.03342 | 32711 ft | 494 kts | 275° |
| 2026-05-01 12:58 | 53.43051 | -9.08972 | 32971 ft | 493 kts | 275° |
| 2026-05-01 12:59 | 53.44430 | -9.20224 | 33468 ft | 492 kts | 275° |
| 2026-05-01 12:59 | 53.45116 | -9.25850 | 33687 ft | 491 kts | 275° |
| 2026-05-01 12:59 | 53.46472 | -9.37053 | 34207 ft | 488 kts | 275° |
| 2026-05-01 13:00 | 53.47809 | -9.48197 | 34501 ft | 487 kts | 275° |
| 2026-05-01 13:00 | 53.48472 | -9.53762 | 34659 ft | 486 kts | 276° |
| 2026-05-01 13:01 | 53.49789 | -9.64896 | 35009 ft | 485 kts | 276° |
| 2026-05-01 13:01 | 53.50443 | -9.70460 | 35062 ft | 486 kts | 276° |
| 2026-05-01 13:02 | 53.52393 | -9.87177 | 35122 ft | 486 kts | 276° |
| 2026-05-01 13:07 | 53.65637 | -11.07869 | 35071 ft | 484 kts | 276° |
| 2026-05-01 13:08 | 53.66807 | -11.19045 | 35073 ft | 484 kts | 276° |
| 2026-05-01 13:08 | 53.67965 | -11.30225 | 35066 ft | 484 kts | 276° |
| 2026-05-01 13:09 | 53.69114 | -11.41413 | 35067 ft | 484 kts | 276° |
| 2026-05-01 13:09 | 53.70249 | -11.52621 | 35084 ft | 484 kts | 276° |
| 2026-05-01 13:10 | 53.71327 | -11.63870 | 35061 ft | 487 kts | 276° |
| 2026-05-01 13:10 | 53.72419 | -11.75152 | 35056 ft | 487 kts | 276° |
| 2026-05-01 13:11 | 53.73520 | -11.86365 | 35058 ft | 487 kts | 276° |
| 2026-05-01 13:11 | 53.74624 | -11.97644 | 35050 ft | 487 kts | 276° |
| 2026-05-01 13:12 | 53.75717 | -12.08934 | 35069 ft | 487 kts | 277° |
| 2026-05-01 13:12 | 53.76803 | -12.20283 | 35049 ft | 489 kts | 277° |
| 2026-05-01 13:13 | 53.77879 | -12.31642 | 35046 ft | 490 kts | 277° |
| 2026-05-01 13:13 | 53.78945 | -12.43011 | 35040 ft | 490 kts | 277° |
| 2026-05-01 13:14 | 53.79999 | -12.54384 | 35042 ft | 490 kts | 277° |
| 2026-05-01 13:14 | 53.81044 | -12.65775 | 35057 ft | 489 kts | 277° |
| 2026-05-01 13:15 | 53.82072 | -12.77107 | 35030 ft | 487 kts | 277° |
| 2026-05-01 13:15 | 53.83090 | -12.88442 | 35048 ft | 488 kts | 277° |
| 2026-05-01 13:16 | 53.84055 | -12.99814 | 35049 ft | 488 kts | 277° |
| 2026-05-01 13:16 | 53.85013 | -13.11211 | 35060 ft | 489 kts | 277° |
| 2026-05-01 13:17 | 53.86968 | -13.33983 | 35065 ft | 490 kts | 277° |
| 2026-05-01 13:18 | 53.88420 | -13.51125 | 35063 ft | 488 kts | 277° |
| 2026-05-01 13:18 | 53.89373 | -13.62553 | 35078 ft | 490 kts | 277° |
| 2026-05-01 13:19 | 53.90315 | -13.74010 | 35075 ft | 490 kts | 277° |
| 2026-05-01 13:20 | 53.91698 | -13.91062 | 35075 ft | 486 kts | 278° |
| 2026-05-01 13:20 | 53.92604 | -14.02394 | 35094 ft | 485 kts | 278° |
| 2026-05-01 13:21 | 53.93941 | -14.19394 | 35092 ft | 485 kts | 278° |
| 2026-05-01 13:21 | 53.94818 | -14.30765 | 35114 ft | 485 kts | 277° |
| 2026-05-01 13:22 | 53.95627 | -14.42074 | 35103 ft | 480 kts | 278° |
| 2026-05-01 13:22 | 53.96445 | -14.53336 | 35118 ft | 481 kts | 278° |
| 2026-05-01 13:23 | 53.97277 | -14.64592 | 35119 ft | 480 kts | 280° |
| 2026-05-01 13:23 | 53.98104 | -14.75825 | 35125 ft | 480 kts | 280° |
| 2026-05-01 13:24 | 53.98925 | -14.87095 | 35132 ft | 480 kts | 279° |
| 2026-05-01 13:25 | 54.00075 | -15.03940 | 35135 ft | 479 kts | 277° |
| 2026-05-01 13:25 | 54.00390 | -15.15244 | 35149 ft | 479 kts | 274° |
| 2026-05-01 13:26 | 54.00556 | -15.26495 | 35148 ft | 479 kts | 274° |
| 2026-05-01 13:26 | 54.00738 | -15.37810 | 35153 ft | 479 kts | 274° |
| 2026-05-01 13:27 | 54.00933 | -15.49134 | 35139 ft | 477 kts | 275° |
| 2026-05-01 13:27 | 54.01216 | -15.65998 | 35165 ft | 475 kts | 275° |
| 2026-05-01 13:28 | 54.01476 | -15.82862 | 35166 ft | 475 kts | 275° |
| 2026-05-01 13:29 | 54.01782 | -16.05320 | 35174 ft | 473 kts | 275° |
| 2026-05-01 13:31 | 54.02161 | -16.38833 | 35176 ft | 472 kts | 275° |
| 2026-05-01 13:32 | 54.02314 | -16.66763 | 35189 ft | 472 kts | 275° |
| 2026-05-01 13:33 | 54.02489 | -16.94686 | 35195 ft | 472 kts | 275° |
| 2026-05-01 13:34 | 54.02587 | -17.17040 | 35192 ft | 472 kts | 274° |
| 2026-05-01 13:35 | 54.02631 | -17.33739 | 35204 ft | 469 kts | 274° |
| 2026-05-01 13:36 | 54.02654 | -17.50352 | 35206 ft | 469 kts | 274° |
| 2026-05-01 13:36 | 54.02653 | -17.66996 | 35197 ft | 468 kts | 274° |
| 2026-05-01 13:37 | 54.02638 | -17.78006 | 35213 ft | 464 kts | 274° |
| 2026-05-01 13:37 | 54.02597 | -17.88985 | 35214 ft | 464 kts | 274° |
| 2026-05-01 13:38 | 54.02476 | -18.05458 | 35219 ft | 464 kts | 274° |
| 2026-05-01 13:39 | 54.02418 | -18.16420 | 35216 ft | 464 kts | 274° |
| 2026-05-01 13:39 | 54.02359 | -18.27362 | 35221 ft | 460 kts | 274° |
| 2026-05-01 13:40 | 54.02292 | -18.38241 | 35227 ft | 460 kts | 274° |
| 2026-05-01 13:40 | 54.02216 | -18.49111 | 35227 ft | 460 kts | 274° |
| 2026-05-01 13:41 | 54.02129 | -18.59970 | 35227 ft | 460 kts | 274° |
| 2026-05-01 13:41 | 54.02032 | -18.70838 | 35227 ft | 460 kts | 274° |
| 2026-05-01 13:42 | 54.01925 | -18.81715 | 35224 ft | 460 kts | 274° |
| 2026-05-01 13:42 | 54.01809 | -18.92499 | 35233 ft | 459 kts | 274° |
| 2026-05-01 13:43 | 54.01683 | -19.03340 | 35227 ft | 458 kts | 274° |
| 2026-05-01 13:43 | 54.01547 | -19.14162 | 35234 ft | 457 kts | 274° |
| 2026-05-01 13:44 | 54.01401 | -19.24962 | 35234 ft | 457 kts | 273° |
| 2026-05-01 13:44 | 54.01198 | -19.35768 | 35237 ft | 457 kts | 273° |
| 2026-05-01 13:45 | 54.00995 | -19.46550 | 35245 ft | 456 kts | 273° |
| 2026-05-01 13:45 | 54.00812 | -19.57316 | 35241 ft | 456 kts | 273° |
| 2026-05-01 13:46 | 54.00629 | -19.68097 | 35241 ft | 456 kts | 273° |
| 2026-05-01 13:46 | 54.00437 | -19.78865 | 35248 ft | 456 kts | 273° |
| 2026-05-01 13:47 | 54.00235 | -19.89635 | 35249 ft | 456 kts | 273° |
| 2026-05-01 13:47 | 53.99797 | -20.00434 | 35253 ft | 459 kts | 270° |
| 2026-05-01 13:48 | 53.99160 | -20.11225 | 35255 ft | 459 kts | 269° |
| 2026-05-01 13:48 | 53.98515 | -20.22025 | 35261 ft | 459 kts | 269° |
| 2026-05-01 13:49 | 53.97882 | -20.32814 | 35260 ft | 459 kts | 269° |
| 2026-05-01 13:49 | 53.97356 | -20.41778 | 35251 ft | 459 kts | 269° |
| 2026-05-01 13:50 | 53.96714 | -20.52567 | 35264 ft | 459 kts | 269° |
| 2026-05-01 13:50 | 53.96064 | -20.63320 | 35271 ft | 459 kts | 269° |
| 2026-05-01 13:51 | 53.95402 | -20.74114 | 35271 ft | 459 kts | 269° |
| 2026-05-01 13:51 | 53.94730 | -20.84890 | 35273 ft | 459 kts | 269° |
| 2026-05-01 13:52 | 53.94050 | -20.95654 | 35263 ft | 459 kts | 268° |
| 2026-05-01 13:52 | 53.93359 | -21.06399 | 35280 ft | 457 kts | 268° |
| 2026-05-01 13:53 | 53.92662 | -21.17112 | 35281 ft | 457 kts | 268° |
| 2026-05-01 13:53 | 53.91594 | -21.33177 | 35289 ft | 457 kts | 268° |
| 2026-05-01 13:54 | 53.90818 | -21.43889 | 35290 ft | 457 kts | 268° |
| 2026-05-01 13:54 | 53.90056 | -21.54602 | 35289 ft | 458 kts | 268° |
| 2026-05-01 13:55 | 53.89308 | -21.65315 | 35289 ft | 458 kts | 268° |
| 2026-05-01 13:55 | 53.88558 | -21.76031 | 35290 ft | 458 kts | 267° |
| 2026-05-01 13:56 | 53.87798 | -21.86742 | 35292 ft | 458 kts | 267° |
| 2026-05-01 13:56 | 53.87027 | -21.97465 | 35295 ft | 458 kts | 267° |
| 2026-05-01 13:57 | 53.86248 | -22.08160 | 35292 ft | 458 kts | 267° |
| 2026-05-01 13:57 | 53.85457 | -22.18876 | 35298 ft | 458 kts | 267° |
| 2026-05-01 13:58 | 53.84659 | -22.29559 | 35298 ft | 458 kts | 267° |
| 2026-05-01 13:58 | 53.83850 | -22.40257 | 35303 ft | 458 kts | 267° |
| 2026-05-01 13:59 | 53.83032 | -22.50950 | 35304 ft | 458 kts | 267° |
| 2026-05-01 13:59 | 53.82203 | -22.61646 | 35302 ft | 459 kts | 266° |
| 2026-05-01 14:00 | 53.81361 | -22.72344 | 35308 ft | 459 kts | 266° |
| 2026-05-01 14:00 | 53.80461 | -22.83021 | 35321 ft | 459 kts | 266° |
| 2026-05-01 14:01 | 53.79571 | -22.93709 | 35312 ft | 459 kts | 266° |
| 2026-05-01 14:01 | 53.78695 | -23.04405 | 35316 ft | 459 kts | 266° |
| 2026-05-01 14:02 | 53.77820 | -23.15080 | 35311 ft | 459 kts | 266° |
| 2026-05-01 14:02 | 53.76960 | -23.25452 | 35319 ft | 459 kts | 266° |
| 2026-05-01 14:03 | 53.76064 | -23.36140 | 35318 ft | 459 kts | 266° |
| 2026-05-01 14:03 | 53.75157 | -23.46825 | 35326 ft | 460 kts | 266° |
| 2026-05-01 14:04 | 53.74240 | -23.57517 | 35319 ft | 459 kts | 266° |
| 2026-05-01 14:04 | 53.73314 | -23.68195 | 35328 ft | 460 kts | 266° |
| 2026-05-01 14:05 | 53.72385 | -23.78800 | 35332 ft | 460 kts | 266° |
| 2026-05-01 14:05 | 53.71442 | -23.89452 | 35332 ft | 460 kts | 265° |
| 2026-05-01 14:06 | 53.70487 | -24.00119 | 35340 ft | 460 kts | 265° |
| 2026-05-01 14:06 | 53.69520 | -24.10788 | 35318 ft | 460 kts | 265° |
| 2026-05-01 14:07 | 53.68495 | -24.21438 | 35342 ft | 460 kts | 265° |
| 2026-05-01 14:08 | 53.66976 | -24.37425 | 35344 ft | 460 kts | 265° |
| 2026-05-01 14:08 | 53.65977 | -24.48071 | 35349 ft | 460 kts | 265° |
| 2026-05-01 14:09 | 53.64970 | -24.58729 | 35349 ft | 460 kts | 265° |
| 2026-05-01 14:09 | 53.63954 | -24.69365 | 35350 ft | 460 kts | 265° |
| 2026-05-01 14:10 | 53.62929 | -24.79990 | 35354 ft | 460 kts | 265° |
| 2026-05-01 14:10 | 53.61894 | -24.90615 | 35360 ft | 460 kts | 265° |
| 2026-05-01 14:11 | 53.60849 | -25.01237 | 35359 ft | 460 kts | 265° |
| 2026-05-01 14:11 | 53.59266 | -25.17150 | 35355 ft | 459 kts | 265° |
| 2026-05-01 14:12 | 53.58197 | -25.27764 | 35369 ft | 459 kts | 265° |
| 2026-05-01 14:12 | 53.57120 | -25.38354 | 35372 ft | 459 kts | 265° |
| 2026-05-01 14:13 | 53.56220 | -25.47129 | 35370 ft | 457 kts | 265° |
| 2026-05-01 14:13 | 53.54897 | -25.59401 | 35372 ft | 456 kts | 265° |
| 2026-05-01 14:14 | 53.53767 | -25.69901 | 35369 ft | 456 kts | 265° |
| 2026-05-01 14:14 | 53.52652 | -25.80415 | 35376 ft | 457 kts | 265° |
| 2026-05-01 14:15 | 53.51535 | -25.90925 | 35385 ft | 457 kts | 265° |
| 2026-05-01 14:15 | 53.50409 | -26.01428 | 35386 ft | 457 kts | 265° |
| 2026-05-01 14:16 | 53.49274 | -26.11923 | 35391 ft | 457 kts | 265° |
| 2026-05-01 14:16 | 53.48131 | -26.22400 | 35385 ft | 457 kts | 264° |
| 2026-05-01 14:17 | 53.46975 | -26.32910 | 35395 ft | 458 kts | 264° |
| 2026-05-01 14:17 | 53.45809 | -26.43414 | 35396 ft | 458 kts | 264° |
| 2026-05-01 14:18 | 53.44634 | -26.53908 | 35407 ft | 458 kts | 264° |
| 2026-05-01 14:18 | 53.43651 | -26.62625 | 35402 ft | 458 kts | 264° |
| 2026-05-01 14:19 | 53.42256 | -26.74890 | 35408 ft | 458 kts | 264° |
| 2026-05-01 14:19 | 53.41051 | -26.85379 | 35413 ft | 459 kts | 264° |
| 2026-05-01 14:20 | 53.39158 | -27.01091 | 35405 ft | 459 kts | 263° |
| 2026-05-01 14:21 | 53.37917 | -27.11510 | 35413 ft | 459 kts | 263° |
| 2026-05-01 14:21 | 53.36675 | -27.22003 | 35415 ft | 459 kts | 263° |
| 2026-05-01 14:22 | 53.34804 | -27.37713 | 35417 ft | 459 kts | 263° |
| 2026-05-01 14:22 | 53.33541 | -27.48198 | 35413 ft | 459 kts | 263° |
| 2026-05-01 14:23 | 53.32271 | -27.58661 | 35424 ft | 459 kts | 263° |
| 2026-05-01 14:23 | 53.30993 | -27.69101 | 35422 ft | 457 kts | 263° |
| 2026-05-01 14:24 | 53.29712 | -27.79496 | 35422 ft | 456 kts | 263° |
| 2026-05-01 14:24 | 53.28422 | -27.89878 | 35427 ft | 456 kts | 263° |
| 2026-05-01 14:25 | 53.27123 | -28.00260 | 35428 ft | 456 kts | 263° |
| 2026-05-01 14:25 | 53.25815 | -28.10631 | 35427 ft | 456 kts | 263° |
| 2026-05-01 14:26 | 53.23816 | -28.26186 | 35427 ft | 457 kts | 262° |
| 2026-05-01 14:27 | 53.22433 | -28.36552 | 35437 ft | 457 kts | 262° |
| 2026-05-01 14:27 | 53.21070 | -28.46911 | 35437 ft | 457 kts | 262° |
| 2026-05-01 14:28 | 53.19036 | -28.62455 | 35441 ft | 457 kts | 262° |
| 2026-05-01 14:28 | 53.17672 | -28.72815 | 35440 ft | 457 kts | 262° |
| 2026-05-01 14:29 | 53.16298 | -28.83165 | 35446 ft | 458 kts | 262° |
| 2026-05-01 14:30 | 53.13520 | -29.03858 | 35453 ft | 458 kts | 261° |
| 2026-05-01 14:31 | 53.11414 | -29.19360 | 35456 ft | 458 kts | 261° |
| 2026-05-01 14:31 | 53.09997 | -29.29699 | 35453 ft | 458 kts | 261° |
| 2026-05-01 14:32 | 53.08812 | -29.38282 | 35457 ft | 458 kts | 261° |
| 2026-05-01 14:32 | 53.07143 | -29.50299 | 35460 ft | 458 kts | 261° |
| 2026-05-01 14:33 | 53.05683 | -29.60616 | 35468 ft | 459 kts | 260° |
| 2026-05-01 14:33 | 53.04179 | -29.70916 | 35462 ft | 459 kts | 260° |
| 2026-05-01 14:34 | 53.02933 | -29.79551 | 35463 ft | 459 kts | 260° |
| 2026-05-01 14:34 | 53.01459 | -29.89840 | 35471 ft | 457 kts | 260° |
| 2026-05-01 14:35 | 53.00052 | -30.00133 | 35477 ft | 456 kts | 264° |
| 2026-05-01 14:35 | 52.99282 | -30.10516 | 35477 ft | 454 kts | 268° |
| 2026-05-01 14:36 | 52.98744 | -30.20951 | 35482 ft | 454 kts | 268° |
| 2026-05-01 14:36 | 52.98184 | -30.31398 | 35473 ft | 455 kts | 268° |
| 2026-05-01 14:37 | 52.97586 | -30.41791 | 35476 ft | 456 kts | 267° |
| 2026-05-01 14:37 | 52.96962 | -30.52274 | 35479 ft | 456 kts | 267° |
| 2026-05-01 14:38 | 52.96328 | -30.62748 | 35481 ft | 456 kts | 267° |
| 2026-05-01 14:38 | 52.95686 | -30.73219 | 35479 ft | 456 kts | 267° |
| 2026-05-01 14:39 | 52.95035 | -30.83688 | 35475 ft | 457 kts | 266° |
| 2026-05-01 14:39 | 52.94374 | -30.94183 | 35481 ft | 458 kts | 266° |
| 2026-05-01 14:40 | 52.93702 | -31.04688 | 35487 ft | 458 kts | 266° |
| 2026-05-01 14:40 | 52.93022 | -31.15163 | 35487 ft | 457 kts | 266° |
| 2026-05-01 14:41 | 52.92334 | -31.25619 | 35494 ft | 455 kts | 266° |
| 2026-05-01 14:41 | 52.91636 | -31.36038 | 35479 ft | 455 kts | 266° |
| 2026-05-01 14:42 | 52.90879 | -31.46480 | 35489 ft | 458 kts | 265° |
| 2026-05-01 14:42 | 52.90130 | -31.56966 | 35495 ft | 458 kts | 265° |
| 2026-05-01 14:43 | 52.89396 | -31.67439 | 35496 ft | 458 kts | 265° |
| 2026-05-01 14:43 | 52.88661 | -31.77912 | 35495 ft | 458 kts | 265° |
| 2026-05-01 14:44 | 52.87916 | -31.88384 | 35492 ft | 458 kts | 265° |
| 2026-05-01 14:44 | 52.86779 | -32.04116 | 35497 ft | 459 kts | 265° |
| 2026-05-01 14:45 | 52.85619 | -32.19861 | 35497 ft | 459 kts | 265° |
| 2026-05-01 14:46 | 52.84834 | -32.30342 | 35498 ft | 460 kts | 264° |
| 2026-05-01 14:46 | 52.83640 | -32.46067 | 35499 ft | 458 kts | 264° |
| 2026-05-01 14:47 | 52.82834 | -32.56510 | 35505 ft | 458 kts | 264° |
| 2026-05-01 14:48 | 52.81607 | -32.72166 | 35508 ft | 458 kts | 264° |
| 2026-05-01 14:48 | 52.80291 | -32.87807 | 35508 ft | 458 kts | 264° |
| 2026-05-01 14:49 | 52.78578 | -33.08665 | 35510 ft | 459 kts | 263° |
| 2026-05-01 14:50 | 52.76844 | -33.29568 | 35512 ft | 460 kts | 263° |
| 2026-05-01 14:51 | 52.75519 | -33.45233 | 35509 ft | 460 kts | 263° |
| 2026-05-01 14:52 | 52.74169 | -33.60926 | 35506 ft | 461 kts | 263° |
| 2026-05-01 14:53 | 52.72801 | -33.76594 | 35517 ft | 460 kts | 262° |
| 2026-05-01 14:53 | 52.71877 | -33.87029 | 35517 ft | 460 kts | 262° |
| 2026-05-01 14:54 | 52.70945 | -33.97451 | 35516 ft | 460 kts | 262° |
| 2026-05-01 14:54 | 52.70001 | -34.07870 | 35515 ft | 460 kts | 261° |
| 2026-05-01 14:55 | 52.68999 | -34.18295 | 35518 ft | 460 kts | 261° |
| 2026-05-01 14:55 | 52.68007 | -34.28698 | 35519 ft | 460 kts | 261° |
| 2026-05-01 14:56 | 52.67030 | -34.39116 | 35523 ft | 459 kts | 261° |
| 2026-05-01 14:56 | 52.66052 | -34.49523 | 35523 ft | 460 kts | 261° |
| 2026-05-01 14:57 | 52.65065 | -34.59926 | 35518 ft | 460 kts | 261° |
| 2026-05-01 14:57 | 52.63562 | -34.75567 | 35521 ft | 461 kts | 261° |
| 2026-05-01 14:58 | 52.62548 | -34.85991 | 35521 ft | 461 kts | 261° |
| 2026-05-01 14:58 | 52.61526 | -34.96403 | 35521 ft | 461 kts | 261° |
| 2026-05-01 14:59 | 52.60495 | -35.06804 | 35522 ft | 460 kts | 260° |
| 2026-05-01 14:59 | 52.59455 | -35.17205 | 35524 ft | 462 kts | 260° |
| 2026-05-01 15:00 | 52.57871 | -35.32848 | 35528 ft | 463 kts | 259° |
| 2026-05-01 15:01 | 52.56800 | -35.43279 | 35527 ft | 463 kts | 259° |
| 2026-05-01 15:01 | 52.55673 | -35.53693 | 35525 ft | 463 kts | 259° |
| 2026-05-01 15:02 | 52.54556 | -35.64110 | 35528 ft | 463 kts | 259° |
| 2026-05-01 15:02 | 52.53452 | -35.74544 | 35527 ft | 465 kts | 259° |
| 2026-05-01 15:03 | 52.52343 | -35.85007 | 35533 ft | 465 kts | 259° |
| 2026-05-01 15:03 | 52.51223 | -35.95476 | 35530 ft | 465 kts | 259° |
| 2026-05-01 15:04 | 52.50095 | -36.05931 | 35530 ft | 465 kts | 259° |
| 2026-05-01 15:04 | 52.48957 | -36.16383 | 35530 ft | 465 kts | 258° |
| 2026-05-01 15:05 | 52.47809 | -36.26823 | 35533 ft | 466 kts | 258° |
| 2026-05-01 15:05 | 52.46653 | -36.37262 | 35530 ft | 466 kts | 258° |
| 2026-05-01 15:06 | 52.45493 | -36.47639 | 35530 ft | 466 kts | 258° |
| 2026-05-01 15:06 | 52.44314 | -36.58106 | 35530 ft | 466 kts | 258° |
| 2026-05-01 15:07 | 52.43130 | -36.68531 | 35530 ft | 466 kts | 258° |
| 2026-05-01 15:07 | 52.41921 | -36.78999 | 35531 ft | 468 kts | 257° |
| 2026-05-01 15:08 | 52.40658 | -36.89477 | 35530 ft | 469 kts | 256° |
| 2026-05-01 15:08 | 52.39411 | -36.99956 | 35530 ft | 469 kts | 257° |
| 2026-05-01 15:09 | 52.38176 | -37.10439 | 35533 ft | 469 kts | 257° |
| 2026-05-01 15:09 | 52.36937 | -37.20916 | 35533 ft | 469 kts | 257° |
| 2026-05-01 15:10 | 52.35687 | -37.31402 | 35537 ft | 471 kts | 256° |
| 2026-05-01 15:10 | 52.33783 | -37.47193 | 35532 ft | 472 kts | 256° |
| 2026-05-01 15:11 | 52.31860 | -37.62965 | 35532 ft | 472 kts | 256° |
| 2026-05-01 15:12 | 52.30566 | -37.73474 | 35533 ft | 472 kts | 256° |
| 2026-05-01 15:12 | 52.28608 | -37.89217 | 35536 ft | 472 kts | 256° |
| 2026-05-01 15:14 | 52.25273 | -38.15429 | 35531 ft | 471 kts | 255° |
| 2026-05-01 15:14 | 52.23432 | -38.29350 | 35549 ft | 472 kts | 255° |
| 2026-05-01 15:15 | 52.20689 | -38.50400 | 35537 ft | 476 kts | 255° |
| 2026-05-01 15:16 | 52.17916 | -38.71481 | 35532 ft | 475 kts | 254° |
| 2026-05-01 15:18 | 52.14380 | -38.97877 | 35535 ft | 479 kts | 254° |
| 2026-05-01 15:19 | 52.11499 | -39.19048 | 35533 ft | 479 kts | 253° |
| 2026-05-01 15:19 | 52.09310 | -39.34929 | 35540 ft | 480 kts | 253° |
| 2026-05-01 15:20 | 52.07057 | -39.50793 | 35520 ft | 484 kts | 253° |
| 2026-05-01 15:21 | 52.05522 | -39.61434 | 35537 ft | 484 kts | 253° |
| 2026-05-01 15:21 | 52.04005 | -39.72077 | 35520 ft | 484 kts | 253° |
| 2026-05-01 15:22 | 52.01727 | -39.88037 | 35531 ft | 485 kts | 253° |
| 2026-05-01 15:22 | 52.00215 | -39.98721 | 35529 ft | 487 kts | 256° |
| 2026-05-01 15:23 | 51.99308 | -40.09660 | 35528 ft | 490 kts | 262° |
| 2026-05-01 15:23 | 51.98744 | -40.20681 | 35534 ft | 490 kts | 262° |
| 2026-05-01 15:24 | 51.98173 | -40.31696 | 35523 ft | 490 kts | 262° |
| 2026-05-01 15:24 | 51.97548 | -40.42715 | 35535 ft | 491 kts | 262° |
| 2026-05-01 15:25 | 51.96897 | -40.53724 | 35524 ft | 491 kts | 262° |
| 2026-05-01 15:25 | 51.96234 | -40.64742 | 35524 ft | 491 kts | 262° |
| 2026-05-01 15:26 | 51.95563 | -40.75744 | 35524 ft | 490 kts | 262° |
| 2026-05-01 15:26 | 51.94883 | -40.86728 | 35520 ft | 489 kts | 262° |
| 2026-05-01 15:27 | 51.94194 | -40.97696 | 35532 ft | 489 kts | 262° |
| 2026-05-01 15:28 | 51.93141 | -41.14141 | 35525 ft | 489 kts | 262° |
| 2026-05-01 15:28 | 51.92427 | -41.25090 | 35523 ft | 489 kts | 262° |
| 2026-05-01 15:29 | 51.91291 | -41.41526 | 35515 ft | 489 kts | 261° |
| 2026-05-01 15:30 | 51.89756 | -41.63381 | 35526 ft | 485 kts | 262° |
| 2026-05-01 15:31 | 51.87472 | -41.95839 | 35521 ft | 484 kts | 262° |
| 2026-05-01 15:32 | 51.85903 | -42.17392 | 35523 ft | 482 kts | 262° |
| 2026-05-01 15:34 | 51.83488 | -42.49532 | 35512 ft | 478 kts | 261° |